createdAt,value
2019-03-22T00:00:21.309Z,1.70
2019-03-22T00:02:50.025Z,1.70
2019-03-22T00:05:18.760Z,1.70
2019-03-22T00:07:48.636Z,1.70
2019-03-22T00:10:17.615Z,1.60
2019-03-22T00:12:46.398Z,1.60
2019-03-22T00:15:15.378Z,1.50
2019-03-22T00:17:44.197Z,1.50
2019-03-22T00:20:13.111Z,1.50
2019-03-22T00:22:41.855Z,1.40
2019-03-22T00:25:10.731Z,1.50
2019-03-22T00:27:39.544Z,1.50
2019-03-22T00:30:09.325Z,1.60
2019-03-22T00:32:37.897Z,1.70
2019-03-22T00:35:07.709Z,1.60
2019-03-22T00:37:36.523Z,1.60
2019-03-22T00:40:10.317Z,1.70
2019-03-22T00:42:38.839Z,1.60
2019-03-22T00:45:09.280Z,1.60
2019-03-22T00:47:38.068Z,1.40
2019-03-22T00:50:07.967Z,1.40
2019-03-22T00:52:36.872Z,1.40
2019-03-22T00:55:06.745Z,1.30
2019-03-22T00:57:35.500Z,1.30
2019-03-22T01:00:07.428Z,1.30
2019-03-22T01:02:36.216Z,1.30
2019-03-22T01:05:08.090Z,1.30
2019-03-22T01:07:36.848Z,1.20
2019-03-22T01:10:10.618Z,1.30
2019-03-22T01:12:39.504Z,1.40
2019-03-22T01:15:10.019Z,1.40
2019-03-22T01:17:38.910Z,1.40
2019-03-22T01:20:09.377Z,1.20
2019-03-22T01:22:38.167Z,1.20
2019-03-22T01:25:07.844Z,1.10
2019-03-22T01:27:40.927Z,1.10
2019-03-22T01:30:13.242Z,1.10
2019-03-22T01:32:42.042Z,1.10
2019-03-22T01:35:11.457Z,1.00
2019-03-22T01:37:40.231Z,1.00
2019-03-22T01:40:11.399Z,1.00
2019-03-22T01:42:40.206Z,1.10
2019-03-22T01:45:11.815Z,1.10
2019-03-22T01:47:40.629Z,1.10
2019-03-22T01:50:15.444Z,1.10
2019-03-22T01:52:43.952Z,1.00
2019-03-22T01:55:12.824Z,0.90
2019-03-22T01:57:52.496Z,0.90
2019-03-22T02:00:17.763Z,0.90
2019-03-22T02:02:46.619Z,0.80
2019-03-22T02:05:15.490Z,0.80
2019-03-22T02:07:44.734Z,0.80
2019-03-22T02:10:13.872Z,0.70
2019-03-22T02:12:42.744Z,0.70
2019-03-22T02:15:16.267Z,0.70
2019-03-22T02:17:45.287Z,0.80
2019-03-22T02:20:15.777Z,0.70
2019-03-22T02:22:45.025Z,0.70
2019-03-22T02:25:15.158Z,0.80
2019-03-22T02:27:44.189Z,0.80
2019-03-22T02:30:15.420Z,0.80
2019-03-22T02:32:44.197Z,0.80
2019-03-22T02:35:27.573Z,0.70
2019-03-22T02:37:43.532Z,0.80
2019-03-22T02:40:13.197Z,0.70
2019-03-22T02:42:41.998Z,0.60
2019-03-22T02:45:15.491Z,0.60
2019-03-22T02:47:44.456Z,0.60
2019-03-22T02:50:18.494Z,0.60
2019-03-22T02:52:44.956Z,0.60
2019-03-22T02:55:14.456Z,0.60
2019-03-22T02:57:43.234Z,0.60
2019-03-22T03:00:16.579Z,0.60
2019-03-22T03:02:45.598Z,0.60
2019-03-22T03:05:14.957Z,0.80
2019-03-22T03:07:43.905Z,0.70
2019-03-22T03:10:15.930Z,0.70
2019-03-22T03:12:45.331Z,0.60
2019-03-22T03:15:18.657Z,0.60
2019-03-22T03:17:47.435Z,0.50
2019-03-22T03:20:17.730Z,0.50
2019-03-22T03:22:46.748Z,0.50
2019-03-22T03:25:17.275Z,0.50
2019-03-22T03:27:46.102Z,0.50
2019-03-22T03:30:19.927Z,0.50
2019-03-22T03:32:48.969Z,0.60
2019-03-22T03:35:18.398Z,0.60
2019-03-22T03:37:47.504Z,0.60
2019-03-22T03:40:18.142Z,0.50
2019-03-22T03:42:46.994Z,0.40
2019-03-22T03:45:38.402Z,0.30
2019-03-22T03:48:10.922Z,0.40
2019-03-22T03:50:39.609Z,0.40
2019-03-22T03:53:08.241Z,0.40
2019-03-22T03:55:37.238Z,0.40
2019-03-22T03:58:06.583Z,0.50
2019-03-22T04:00:35.395Z,0.40
2019-03-22T04:03:04.485Z,0.40
2019-03-22T04:05:33.390Z,0.40
2019-03-22T04:08:02.289Z,0.30
2019-03-22T04:10:31.186Z,0.30
2019-03-22T04:13:02.438Z,0.20
2019-03-22T04:15:33.323Z,0.20
2019-03-22T04:18:03.008Z,0.10
2019-03-22T04:20:35.243Z,0.10
2019-03-22T04:23:06.224Z,0.20
2019-03-22T04:25:35.195Z,0.20
2019-03-22T04:28:04.093Z,0.30
2019-03-22T04:30:32.638Z,0.20
2019-03-22T04:33:06.530Z,0.20
2019-03-22T04:35:36.716Z,0.10
2019-03-22T04:38:05.684Z,0.20
2019-03-22T04:40:47.447Z,0.10
2019-03-22T04:43:54.063Z,0.10
2019-03-22T04:45:49.398Z,0.10
2019-03-22T04:48:20.987Z,0.10
2019-03-22T04:50:51.184Z,0.20
2019-03-22T04:53:23.432Z,0.10
2019-03-22T04:55:55.237Z,0.10
2019-03-22T04:58:25.627Z,0.00
2019-03-22T05:00:55.315Z,0.00
2019-03-22T05:03:26.505Z,0.00
2019-03-22T05:05:56.951Z,0.00
2019-03-22T05:08:28.667Z,-0.10
2019-03-22T05:10:59.936Z,-0.10
2019-03-22T05:13:29.790Z,-0.10
2019-03-22T05:15:58.884Z,-0.10
2019-03-22T05:18:29.570Z,0.00
2019-03-22T05:20:59.125Z,0.10
2019-03-22T05:23:29.665Z,0.10
2019-03-22T05:26:04.087Z,0.00
2019-03-22T05:28:34.081Z,0.00
2019-03-22T05:31:11.844Z,0.00
2019-03-22T05:33:40.624Z,0.10
2019-03-22T05:36:09.447Z,0.10
2019-03-22T05:38:38.152Z,0.20
2019-03-22T05:41:07.116Z,0.30
2019-03-22T05:43:35.798Z,0.50
2019-03-22T05:46:04.679Z,0.60
2019-03-22T05:48:33.543Z,0.70
2019-03-22T05:51:02.519Z,0.70
2019-03-22T05:53:31.399Z,0.80
2019-03-22T05:56:00.301Z,0.80
2019-03-22T05:58:29.267Z,0.80
2019-03-22T06:00:58.053Z,0.90
2019-03-22T06:03:27.028Z,1.00
2019-03-22T06:06:00.861Z,1.10
2019-03-22T06:08:29.642Z,1.40
2019-03-22T06:14:19.103Z,2.90
2019-03-22T06:16:48.066Z,6.40
2019-03-22T06:19:16.521Z,8.90
2019-03-22T06:21:45.468Z,10.60
2019-03-22T06:24:14.080Z,11.80
2019-03-22T06:26:43.011Z,12.80
2019-03-22T06:29:11.610Z,13.90
2019-03-22T06:31:40.391Z,14.90
2019-03-22T06:34:09.297Z,15.60
2019-03-22T06:36:38.084Z,15.20
2019-03-22T06:39:08.224Z,15.10
2019-03-22T06:41:37.345Z,15.30
2019-03-22T06:44:06.493Z,15.70
2019-03-22T06:46:35.286Z,16.00
2019-03-22T06:49:04.128Z,16.00
2019-03-22T06:51:32.945Z,16.20
2019-03-22T06:54:01.413Z,16.70
2019-03-22T06:56:30.202Z,17.40
2019-03-22T06:58:58.778Z,17.70
2019-03-22T07:01:27.659Z,18.10
2019-03-22T07:03:56.213Z,18.30
2019-03-22T07:06:25.044Z,18.90
2019-03-22T07:08:53.865Z,19.50
2019-03-22T07:11:22.669Z,20.00
2019-03-22T07:13:51.573Z,20.40
2019-03-22T07:16:20.329Z,20.60
2019-03-22T07:18:49.146Z,20.60
2019-03-22T07:21:17.985Z,20.80
2019-03-22T07:23:46.852Z,21.00
2019-03-22T07:26:15.670Z,21.10
2019-03-22T07:28:44.517Z,21.30
2019-03-22T07:31:13.464Z,21.30
2019-03-22T07:33:42.237Z,21.40
2019-03-22T07:36:11.053Z,21.40
2019-03-22T07:38:39.946Z,21.00
2019-03-22T07:41:08.468Z,20.80
2019-03-22T07:43:37.331Z,21.00
2019-03-22T07:46:06.248Z,21.10
2019-03-22T07:48:35.107Z,21.20
2019-03-22T07:51:03.964Z,21.10
2019-03-22T07:53:32.550Z,20.80
2019-03-22T07:56:01.323Z,20.30
2019-03-22T07:58:30.189Z,19.70
2019-03-22T08:00:58.721Z,19.50
2019-03-22T08:03:27.205Z,19.60
2019-03-22T08:05:56.009Z,19.50
2019-03-22T08:08:24.942Z,19.00
2019-03-22T08:10:53.777Z,18.40
2019-03-22T08:13:22.659Z,17.80
2019-03-22T08:15:51.448Z,17.50
2019-03-22T08:18:20.295Z,17.00
2019-03-22T08:20:49.396Z,16.60
2019-03-22T08:23:20.368Z,16.20
2019-03-22T08:25:49.481Z,15.70
2019-03-22T08:28:18.094Z,15.70
2019-03-22T08:30:46.635Z,15.60
2019-03-22T08:33:15.436Z,15.60
2019-03-22T08:35:44.337Z,15.80
2019-03-22T08:38:13.135Z,16.10
2019-03-22T08:40:41.614Z,16.30
2019-03-22T08:43:10.503Z,16.50
2019-03-22T08:45:39.291Z,16.40
2019-03-22T08:48:09.065Z,16.20
2019-03-22T08:50:37.591Z,16.00
2019-03-22T08:53:06.418Z,15.90
2019-03-22T08:55:35.259Z,15.70
2019-03-22T08:58:04.157Z,15.40
2019-03-22T09:00:39.329Z,15.10
2019-03-22T09:03:03.386Z,15.20
2019-03-22T09:05:32.292Z,15.20
2019-03-22T09:08:01.170Z,15.00
2019-03-22T09:10:30.167Z,14.90
2019-03-22T09:12:59.141Z,14.90
2019-03-22T09:15:40.237Z,15.00
2019-03-22T09:17:58.305Z,15.20
2019-03-22T09:20:27.238Z,15.20
2019-03-22T09:22:56.077Z,15.50
2019-03-22T09:25:24.991Z,15.80
2019-03-22T09:27:53.795Z,15.40
2019-03-22T09:30:22.636Z,15.00
2019-03-22T09:32:51.646Z,15.30
2019-03-22T09:35:20.418Z,15.40
2019-03-22T09:37:49.306Z,15.30
2019-03-22T09:40:18.258Z,14.90
2019-03-22T09:42:47.980Z,15.10
2019-03-22T09:45:17.203Z,15.00
2019-03-22T09:47:46.080Z,15.10
2019-03-22T09:50:15.393Z,15.20
2019-03-22T09:52:44.229Z,15.60
2019-03-22T09:55:14.266Z,15.90
2019-03-22T09:57:43.376Z,16.00
2019-03-22T10:00:27.510Z,15.90
2019-03-22T10:02:56.021Z,15.90
2019-03-22T10:05:24.915Z,16.20
2019-03-22T10:07:53.509Z,16.10
2019-03-22T10:10:22.376Z,15.90
2019-03-22T10:12:50.969Z,15.70
2019-03-22T10:15:19.691Z,15.60
2019-03-22T10:17:49.530Z,15.80
2019-03-22T10:20:18.394Z,16.00
2019-03-22T10:22:46.990Z,16.40
2019-03-22T10:25:15.782Z,16.40
2019-03-22T10:27:44.264Z,16.40
2019-03-22T10:30:15.095Z,16.40
2019-03-22T10:32:43.956Z,16.60
2019-03-22T10:35:25.497Z,16.80
2019-03-22T10:37:42.953Z,16.90
2019-03-22T10:40:11.841Z,17.00
2019-03-22T10:42:40.628Z,16.80
2019-03-22T10:45:10.095Z,16.80
2019-03-22T10:47:38.888Z,16.70
2019-03-22T10:50:08.765Z,16.60
2019-03-22T10:52:38.628Z,16.80
2019-03-22T10:55:28.554Z,16.90
2019-03-22T10:57:40.847Z,16.90
2019-03-22T11:00:12.622Z,17.00
2019-03-22T11:02:41.389Z,16.50
2019-03-22T11:05:10.487Z,16.90
2019-03-22T11:07:39.278Z,17.40
2019-03-22T11:10:11.192Z,17.90
2019-03-22T11:12:40.544Z,17.90
2019-03-22T11:15:11.730Z,17.70
2019-03-22T11:17:40.475Z,17.60
2019-03-22T11:20:15.010Z,17.40
2019-03-22T11:22:59.621Z,17.30
2019-03-22T11:25:28.543Z,17.20
2019-03-22T11:27:56.973Z,17.30
2019-03-22T11:30:25.779Z,17.70
2019-03-22T11:32:54.483Z,17.90
2019-03-22T11:35:23.151Z,18.20
2019-03-22T11:37:51.871Z,18.20
2019-03-22T11:40:20.739Z,18.30
2019-03-22T11:42:51.433Z,18.50
2019-03-22T11:45:24.632Z,18.60
2019-03-22T11:47:53.674Z,18.00
2019-03-22T11:50:23.191Z,18.00
2019-03-22T11:52:51.915Z,17.60
2019-03-22T11:55:20.758Z,17.30
2019-03-22T11:57:49.206Z,17.30
2019-03-22T12:00:25.371Z,17.50
2019-03-22T12:02:54.135Z,17.70
2019-03-22T12:05:23.273Z,17.80
2019-03-22T12:07:52.065Z,18.00
2019-03-22T12:10:21.425Z,18.20
2019-03-22T12:12:50.273Z,18.60
2019-03-22T12:15:23.438Z,18.50
2019-03-22T12:17:52.128Z,18.30
2019-03-22T12:20:22.767Z,18.20
2019-03-22T12:22:51.766Z,18.20
2019-03-22T12:25:22.698Z,18.40
2019-03-22T12:27:52.010Z,18.90
2019-03-22T12:30:20.804Z,19.00
2019-03-22T12:32:49.571Z,19.10
2019-03-22T12:35:19.409Z,19.20
2019-03-22T12:37:48.191Z,19.30
2019-03-22T12:40:21.534Z,19.70
2019-03-22T12:43:11.327Z,19.90
2019-03-22T13:01:21.331Z,19.60
2019-03-22T13:03:50.306Z,19.60
2019-03-22T13:06:18.731Z,19.30
2019-03-22T13:08:47.179Z,19.20
2019-03-22T13:11:15.960Z,19.10
2019-03-22T13:13:44.746Z,19.20
2019-03-22T13:17:11.595Z,19.20
2019-03-22T13:20:10.686Z,18.90
2019-03-22T14:41:45.662Z,16.70
2019-03-22T14:44:14.451Z,16.80
2019-03-22T14:46:43.215Z,16.80
2019-03-22T14:49:12.022Z,16.80
2019-03-22T14:51:40.859Z,16.80
2019-03-22T14:54:09.667Z,16.70
2019-03-22T14:56:38.476Z,16.90
2019-03-22T14:59:06.941Z,17.00
2019-03-22T15:07:26.968Z,17.40
2019-03-22T15:10:05.042Z,17.40
2019-03-22T15:12:33.799Z,17.50
2019-03-22T15:15:07.752Z,17.50
2019-03-22T15:20:21.944Z,17.60
2019-03-22T15:25:05.334Z,17.60
2019-03-22T15:29:28.023Z,17.70
2019-03-22T16:04:03.792Z,17.10
2019-03-22T16:06:32.494Z,17.00
2019-03-22T16:09:01.187Z,16.90
2019-03-22T16:11:29.897Z,16.80
2019-03-22T16:13:58.321Z,16.70
2019-03-22T16:16:27.024Z,16.60
2019-03-22T16:18:55.455Z,16.50
2019-03-22T16:22:01.059Z,16.40
2019-03-22T16:24:01.749Z,16.40
2019-03-22T16:26:30.878Z,16.30
2019-03-22T16:28:59.371Z,16.20
2019-03-22T16:31:28.902Z,16.10
2019-03-22T16:33:57.766Z,16.00
2019-03-22T16:36:26.483Z,15.90
2019-03-22T16:38:54.952Z,15.80
2019-03-22T16:41:23.373Z,15.60
2019-03-22T16:43:51.794Z,15.60
2019-03-22T16:46:20.533Z,15.40
2019-03-22T16:48:48.955Z,15.30
2019-03-22T16:51:18.398Z,15.20
2019-03-22T16:53:47.111Z,15.10
2019-03-22T16:56:15.803Z,15.00
2019-03-22T16:58:44.221Z,14.90
2019-03-22T17:01:12.928Z,14.70
2019-03-22T17:03:44.391Z,14.60
2019-03-22T17:06:15.811Z,14.50
2019-03-22T17:08:44.628Z,14.30
2019-03-22T17:11:13.313Z,14.10
2019-03-22T17:13:42.103Z,14.00
2019-03-22T17:16:11.817Z,13.70
2019-03-22T17:18:40.844Z,13.60
2019-03-22T17:22:48.645Z,13.40
2019-03-22T17:24:07.963Z,13.30
2019-03-22T17:26:39.905Z,13.10
2019-03-22T17:29:09.005Z,12.90
2019-03-22T17:31:46.835Z,12.70
2019-03-22T17:34:14.469Z,12.60
2019-03-22T17:36:42.043Z,12.50
2019-03-22T17:39:14.711Z,12.30
2019-03-22T17:41:43.528Z,12.20
2019-03-22T17:44:12.495Z,12.10
2019-03-22T17:46:52.219Z,11.90
2019-03-22T17:49:23.413Z,11.70
2019-03-22T17:51:52.240Z,11.70
2019-03-22T17:54:20.800Z,11.50
2019-03-22T17:56:49.715Z,11.30
2019-03-22T17:59:18.603Z,11.30
2019-03-22T18:01:47.467Z,11.20
2019-03-22T18:04:23.877Z,11.10
2019-03-22T18:06:46.640Z,10.90
2019-03-22T18:09:15.561Z,10.70
2019-03-22T18:11:44.473Z,10.70
2019-03-22T18:14:16.232Z,10.60
2019-03-22T18:16:44.733Z,10.60
2019-03-22T18:19:13.731Z,10.50
2019-03-22T18:21:42.553Z,10.30
2019-03-22T18:24:11.353Z,10.20
2019-03-22T18:26:39.966Z,10.10
2019-03-22T18:29:08.861Z,9.90
2019-03-22T18:31:37.754Z,9.60
2019-03-22T18:34:06.530Z,9.60
2019-03-22T18:36:35.435Z,9.50
2019-03-22T18:39:07.531Z,9.30
2019-03-22T18:41:36.422Z,9.20
2019-03-22T18:44:05.078Z,9.10
2019-03-22T18:46:33.579Z,9.00
2019-03-22T18:49:02.431Z,9.00
2019-03-22T18:51:31.319Z,9.00
2019-03-22T18:53:59.969Z,8.90
2019-03-22T18:56:28.863Z,8.80
2019-03-22T18:58:57.737Z,8.70
2019-03-22T19:01:26.212Z,8.70
2019-03-22T19:03:55.208Z,8.60
2019-03-22T19:06:24.111Z,8.50
2019-03-22T19:08:53.009Z,8.60
2019-03-22T19:11:21.591Z,8.50
2019-03-22T19:13:50.449Z,8.50
2019-03-22T19:16:19.358Z,8.40
2019-03-22T19:18:48.284Z,8.30
2019-03-22T19:21:17.179Z,8.30
2019-03-22T19:23:46.027Z,8.20
2019-03-22T19:26:14.904Z,8.20
2019-03-22T19:28:43.375Z,8.00
2019-03-22T19:31:12.242Z,7.90
2019-03-22T19:33:41.070Z,7.90
2019-03-22T19:36:09.713Z,7.90
2019-03-22T19:38:38.535Z,7.80
2019-03-22T19:41:07.460Z,7.80
2019-03-22T19:43:36.311Z,7.80
2019-03-22T19:46:05.621Z,7.60
2019-03-22T19:48:34.490Z,7.60
2019-03-22T19:51:03.370Z,7.50
2019-03-22T19:53:31.978Z,7.40
2019-03-22T19:56:00.575Z,7.30
2019-03-22T19:58:29.087Z,7.30
2019-03-22T20:00:57.665Z,7.30
2019-03-22T20:03:26.529Z,7.30
2019-03-22T20:05:55.426Z,7.20
2019-03-22T20:08:23.999Z,7.10
2019-03-22T20:10:52.876Z,7.00
2019-03-22T20:13:22.231Z,7.00
2019-03-22T20:15:51.251Z,7.00
2019-03-22T20:18:20.100Z,7.00
2019-03-22T20:20:49.006Z,7.00
2019-03-22T20:23:17.842Z,6.90
2019-03-22T20:25:46.787Z,6.80
2019-03-22T20:28:23.291Z,6.80
2019-03-22T20:30:52.254Z,6.80
2019-03-22T20:33:25.712Z,6.70
2019-03-22T20:35:54.345Z,6.60
2019-03-22T20:41:43.469Z,6.50
2019-03-22T20:44:12.650Z,6.50
2019-03-22T20:46:49.034Z,6.50
2019-03-22T20:49:18.146Z,6.40
2019-03-22T20:51:46.839Z,6.30
2019-03-22T20:54:17.522Z,6.30
2019-03-22T20:56:46.713Z,6.30
2019-03-22T21:13:34.575Z,6.00
2019-03-22T21:16:03.469Z,5.90
2019-03-22T21:18:32.354Z,5.90
2019-03-22T21:21:01.271Z,5.90
2019-03-22T21:23:36.253Z,5.70
2019-03-22T21:26:00.368Z,5.70
2019-03-22T21:28:29.278Z,5.60
2019-03-22T21:30:58.141Z,5.50
2019-03-22T21:33:26.990Z,5.50
2019-03-22T21:35:55.976Z,5.60
2019-03-22T21:38:24.839Z,5.60
2019-03-22T21:40:53.421Z,5.50
2019-03-22T21:43:22.242Z,5.40
2019-03-22T21:45:51.034Z,5.30
2019-03-22T21:48:19.877Z,5.30
2019-03-22T21:50:48.858Z,5.20
2019-03-22T21:53:17.732Z,5.20
2019-03-22T21:55:46.603Z,5.40
2019-03-22T21:58:15.493Z,5.20
2019-03-22T22:00:44.365Z,5.10
2019-03-22T22:03:13.037Z,5.00
2019-03-22T22:05:47.804Z,5.00
2019-03-22T22:08:12.448Z,4.90
2019-03-22T22:10:41.305Z,4.80
2019-03-22T22:13:10.125Z,4.80
2019-03-22T22:15:38.928Z,4.70
2019-03-22T22:18:07.723Z,4.60
2019-03-22T22:20:36.657Z,4.60
2019-03-22T22:23:05.466Z,4.50
2019-03-22T22:25:34.345Z,4.50
2019-03-22T22:28:03.223Z,4.60
2019-03-22T22:30:31.748Z,4.60
2019-03-22T22:33:00.539Z,4.60
2019-03-22T22:35:29.428Z,4.60
2019-03-22T22:37:58.215Z,4.50
2019-03-22T22:40:27.078Z,4.40
2019-03-22T22:42:55.928Z,4.40
2019-03-22T22:45:24.889Z,4.40
2019-03-22T22:47:53.737Z,4.30
2019-03-22T22:50:22.658Z,4.20
2019-03-22T22:52:51.139Z,4.20
2019-03-22T22:55:19.978Z,4.20
2019-03-22T22:57:48.832Z,4.20
2019-03-22T23:00:18.332Z,4.30
2019-03-22T23:02:47.222Z,4.30
2019-03-22T23:05:16.203Z,4.30
2019-03-22T23:07:45.021Z,4.20
2019-03-22T23:10:14.006Z,4.10
2019-03-22T23:12:43.806Z,4.10
2019-03-22T23:15:12.531Z,4.00
2019-03-22T23:17:41.433Z,3.90
2019-03-22T23:20:11.259Z,3.90
2019-03-22T23:22:39.760Z,3.80
2019-03-22T23:25:09.212Z,3.80
2019-03-22T23:27:38.284Z,3.70
2019-03-22T23:30:12.103Z,3.70
2019-03-22T23:32:41.260Z,3.60
2019-03-22T23:35:10.387Z,3.50
2019-03-22T23:37:38.939Z,3.50
2019-03-22T23:40:08.767Z,3.50
2019-03-22T23:42:37.637Z,3.40
2019-03-22T23:45:09.136Z,3.50
2019-03-22T23:47:38.039Z,3.60
2019-03-22T23:50:10.162Z,3.50
2019-03-22T23:52:39.013Z,3.40
2019-03-22T23:55:08.632Z,3.40
2019-03-22T23:57:37.452Z,3.30
